Time;durP1;ratioP1;P1;durP2;ratioP2;P2;SDS_P1;SDS_P2;PMS_P1;PMS_P2;Temp;Humidity;BMP_temperature;BMP_pressure;BME280_temperature;BME280_humidity;BME280_pressure;Samples;Min_cycle;Max_cycle;Signal;HPM_P1;HPM_P2
2022/03/26 00:02:18;;;;;;;6.13;0.90;;;;;;;;;;5009646;28;21091;-61
2022/03/26 00:04:43;;;;;;;5.85;1.00;;;;;;;;;;5008468;28;20046;-61
2022/03/26 00:07:09;;;;;;;7.00;1.10;;;;;;;;;;5007674;28;20648;-59
2022/03/26 00:09:35;;;;;;;6.18;0.90;;;;;;;;;;5010986;27;20501;-60
2022/03/26 00:12:02;;;;;;;5.20;1.25;;;;;;;;;;5009559;28;20049;-59
2022/03/26 00:14:28;;;;;;;2.67;0.90;;;;;;;;;;5010177;28;20077;-62
2022/03/26 00:16:54;;;;;;;5.18;1.20;;;;;;;;;;5007610;28;20512;-60
2022/03/26 00:19:20;;;;;;;2.92;0.90;;;;;;;;;;5008248;28;20050;-60
2022/03/26 00:21:48;;;;;;;4.95;0.80;;;;;;;;;;5008396;27;20336;-60
2022/03/26 00:24:14;;;;;;;4.13;0.70;;;;;;;;;;5008421;28;20044;-59
2022/03/26 00:26:40;;;;;;;4.10;0.80;;;;;;;;;;5009664;28;20038;-61
2022/03/26 00:29:08;;;;;;;2.97;0.98;;;;;;;;;;5010102;27;20046;-60
2022/03/26 00:31:36;;;;;;;5.65;0.93;;;;;;;;;;5007776;28;20577;-60
2022/03/26 00:34:02;;;;;;;3.42;1.05;;;;;;;;;;5009911;28;20046;-60
2022/03/26 00:36:28;;;;;;;10.45;1.40;;;;;;;;;;5009428;27;20048;-59
2022/03/26 00:38:53;;;;;;;2.95;1.00;;;;;;;;;;5012879;27;20040;-62
2022/03/26 00:41:19;;;;;;;7.97;1.20;;;;;;;;;;5007691;28;20066;-59
2022/03/26 00:43:45;;;;;;;4.35;0.95;;;;;;;;;;5012067;27;20045;-58
2022/03/26 00:46:11;;;;;;;3.70;0.85;;;;;;;;;;5009907;28;20108;-60
2022/03/26 00:48:37;;;;;;;3.58;1.00;;;;;;;;;;5010468;27;20258;-60
2022/03/26 00:51:03;;;;;;;2.90;0.95;;;;;;;;;;5009980;28;20132;-61
2022/03/26 00:53:29;;;;;;;3.50;1.00;;;;;;;;;;5011364;28;20041;-60
2022/03/26 00:55:55;;;;;;;4.40;1.25;;;;;;;;;;5008485;28;20040;-61
2022/03/26 00:58:21;;;;;;;6.85;1.50;;;;;;;;;;5009199;28;20101;-59
2022/03/26 01:00:47;;;;;;;5.78;0.90;;;;;;;;;;5007375;28;20045;-60
2022/03/26 01:03:15;;;;;;;3.80;1.00;;;;;;;;;;5008420;28;20053;-60
2022/03/26 01:05:40;;;;;;;4.22;1.40;;;;;;;;;;4993737;28;20046;-60
2022/03/26 01:08:06;;;;;;;5.03;1.50;;;;;;;;;;5009747;28;20030;-60
2022/03/26 01:10:32;;;;;;;5.25;1.20;;;;;;;;;;5008411;28;20128;-60
2022/03/26 01:12:58;;;;;;;5.75;1.30;;;;;;;;;;4990579;28;20038;-62
2022/03/26 01:15:24;;;;;;;9.05;1.58;;;;;;;;;;5008649;27;20061;-59
2022/03/26 01:17:50;;;;;;;4.38;0.95;;;;;;;;;;5007750;28;20100;-59
2022/03/26 01:20:19;;;;;;;5.95;1.60;;;;;;;;;;5009041;27;20044;-62
2022/03/26 01:22:45;;;;;;;7.05;1.90;;;;;;;;;;5006702;28;20060;-62
2022/03/26 01:25:11;;;;;;;7.03;1.70;;;;;;;;;;5006953;27;20034;-60
2022/03/26 01:27:37;;;;;;;16.92;1.98;;;;;;;;;;5011469;27;20042;-60
2022/03/26 01:30:04;;;;;;;4.15;1.20;;;;;;;;;;5043831;27;20179;-60
2022/03/26 01:32:31;;;;;;;4.15;1.10;;;;;;;;;;5007871;27;20026;-59
2022/03/26 01:34:57;;;;;;;5.50;1.10;;;;;;;;;;5009937;27;20037;-60
2022/03/26 01:37:24;;;;;;;4.03;1.15;;;;;;;;;;5041810;28;20510;-60
2022/03/26 01:39:50;;;;;;;3.88;1.05;;;;;;;;;;5012146;27;20038;-59
2022/03/26 01:42:16;;;;;;;4.43;1.33;;;;;;;;;;5011970;27;20791;-59
2022/03/26 01:44:42;;;;;;;5.65;1.48;;;;;;;;;;5009187;27;20118;-58
2022/03/26 01:47:08;;;;;;;7.90;1.10;;;;;;;;;;4989054;28;20506;-59
2022/03/26 01:49:34;;;;;;;4.32;1.17;;;;;;;;;;5008816;28;20069;-60
2022/03/26 01:52:00;;;;;;;4.25;1.10;;;;;;;;;;5008766;27;20061;-59
2022/03/26 01:54:27;;;;;;;7.15;1.52;;;;;;;;;;5008179;28;20046;-60
2022/03/26 01:56:53;;;;;;;5.68;1.45;;;;;;;;;;4999523;28;20042;-60
2022/03/26 01:59:19;;;;;;;4.90;1.02;;;;;;;;;;5006068;28;20115;-59
2022/03/26 02:01:45;;;;;;;4.40;0.98;;;;;;;;;;5009463;27;20469;-60
2022/03/26 02:04:12;;;;;;;5.35;1.20;;;;;;;;;;5007807;28;20052;-60
2022/03/26 02:06:39;;;;;;;9.15;1.05;;;;;;;;;;5001762;28;20037;-59
2022/03/26 02:09:06;;;;;;;3.30;1.10;;;;;;;;;;5009713;27;20044;-59
2022/03/26 02:11:32;;;;;;;9.18;1.20;;;;;;;;;;5005687;28;20038;-60
2022/03/26 02:13:58;;;;;;;2.97;1.17;;;;;;;;;;5007246;28;20036;-61
2022/03/26 02:16:25;;;;;;;5.57;2.30;;;;;;;;;;5002738;28;20034;-64
2022/03/26 02:18:51;;;;;;;5.55;1.65;;;;;;;;;;5007923;28;20037;-58
2022/03/26 02:21:18;;;;;;;5.80;1.20;;;;;;;;;;5006430;28;20045;-59
2022/03/26 02:23:44;;;;;;;4.22;1.00;;;;;;;;;;5010100;27;20149;-60
2022/03/26 02:26:12;;;;;;;4.88;1.45;;;;;;;;;;5005765;28;20063;-60
2022/03/26 02:28:38;;;;;;;6.20;1.52;;;;;;;;;;5008119;27;20038;-60
2022/03/26 02:31:04;;;;;;;5.65;1.08;;;;;;;;;;5006860;28;20033;-61
2022/03/26 02:33:30;;;;;;;3.97;1.08;;;;;;;;;;4989365;28;20075;-59
2022/03/26 02:35:56;;;;;;;5.55;1.10;;;;;;;;;;5008163;28;20160;-60
2022/03/26 02:38:23;;;;;;;10.32;1.30;;;;;;;;;;5009215;27;20743;-60
2022/03/26 02:40:49;;;;;;;5.53;1.02;;;;;;;;;;5008953;28;20042;-60
2022/03/26 02:43:15;;;;;;;4.43;1.02;;;;;;;;;;5009596;28;20438;-60
2022/03/26 02:45:44;;;;;;;3.28;0.80;;;;;;;;;;5005679;28;20506;-57
2022/03/26 02:48:12;;;;;;;3.42;0.75;;;;;;;;;;5009027;28;20367;-58
2022/03/26 02:50:42;;;;;;;5.75;1.00;;;;;;;;;;5008443;28;20037;-56
2022/03/26 02:53:08;;;;;;;2.58;1.00;;;;;;;;;;5006112;28;20038;-59
2022/03/26 02:55:34;;;;;;;5.47;1.20;;;;;;;;;;5006706;28;20518;-62
2022/03/26 02:58:01;;;;;;;3.15;0.88;;;;;;;;;;5006948;28;20121;-60
2022/03/26 03:00:27;;;;;;;3.10;0.82;;;;;;;;;;5009485;28;20039;-60
2022/03/26 03:02:53;;;;;;;4.45;0.75;;;;;;;;;;5009485;28;20049;-60
2022/03/26 03:05:19;;;;;;;2.22;0.75;;;;;;;;;;5011918;28;20134;-61
2022/03/26 03:07:45;;;;;;;3.22;0.88;;;;;;;;;;5006423;28;20117;-61
2022/03/26 03:10:15;;;;;;;2.95;1.10;;;;;;;;;;5008911;28;20066;-60
2022/03/26 03:12:42;;;;;;;1.92;0.63;;;;;;;;;;5009000;28;20447;-61
2022/03/26 03:15:10;;;;;;;3.20;0.95;;;;;;;;;;5008826;28;20037;-59
2022/03/26 03:17:40;;;;;;;3.33;1.02;;;;;;;;;;5008097;28;20046;-59
2022/03/26 03:20:07;;;;;;;1.95;0.60;;;;;;;;;;5008292;28;20041;-60
2022/03/26 03:22:32;;;;;;;2.70;0.80;;;;;;;;;;5010565;28;20046;-60
2022/03/26 03:24:58;;;;;;;2.60;0.70;;;;;;;;;;5013177;28;20462;-58
2022/03/26 03:27:24;;;;;;;1.90;0.55;;;;;;;;;;5010346;28;20042;-60
2022/03/26 03:29:50;;;;;;;3.67;0.65;;;;;;;;;;5011138;28;20058;-60
2022/03/26 03:32:16;;;;;;;3.47;0.70;;;;;;;;;;5006579;28;20042;-59
2022/03/26 03:34:42;;;;;;;9.18;0.90;;;;;;;;;;4991446;28;20042;-58
2022/03/26 03:37:08;;;;;;;4.72;0.68;;;;;;;;;;5005896;28;20581;-58
2022/03/26 03:39:34;;;;;;;4.32;0.80;;;;;;;;;;5005542;28;20053;-59
2022/03/26 03:42:00;;;;;;;5.95;0.70;;;;;;;;;;5005294;28;20057;-61
2022/03/26 03:44:26;;;;;;;2.85;0.70;;;;;;;;;;4989828;28;20046;-61
2022/03/26 03:46:52;;;;;;;2.08;0.60;;;;;;;;;;5005155;28;20088;-58
2022/03/26 03:49:19;;;;;;;2.33;0.70;;;;;;;;;;5006762;28;20448;-59
2022/03/26 03:51:45;;;;;;;2.78;0.80;;;;;;;;;;5003385;28;20057;-57
2022/03/26 03:54:11;;;;;;;6.07;0.63;;;;;;;;;;5008859;28;20045;-60
2022/03/26 03:56:38;;;;;;;10.35;1.00;;;;;;;;;;5006517;28;20097;-58
2022/03/26 03:59:04;;;;;;;4.70;0.60;;;;;;;;;;5009490;28;20033;-60
2022/03/26 04:01:29;;;;;;;3.78;0.60;;;;;;;;;;5003633;28;20054;-59
2022/03/26 04:03:55;;;;;;;2.08;0.60;;;;;;;;;;5008803;28;20094;-59
2022/03/26 04:06:21;;;;;;;3.70;0.63;;;;;;;;;;5004706;28;20125;-58
2022/03/26 04:08:47;;;;;;;1.95;0.57;;;;;;;;;;5006885;28;20927;-60
2022/03/26 04:11:13;;;;;;;2.42;0.50;;;;;;;;;;5006077;28;20033;-57
2022/03/26 04:13:39;;;;;;;5.78;0.65;;;;;;;;;;5004028;28;20061;-58
2022/03/26 04:16:05;;;;;;;1.42;0.50;;;;;;;;;;5005339;28;20081;-60
2022/03/26 04:18:31;;;;;;;1.00;0.40;;;;;;;;;;5005800;28;20140;-60
2022/03/26 04:20:57;;;;;;;2.05;0.65;;;;;;;;;;5009086;28;20053;-59
2022/03/26 04:23:24;;;;;;;1.27;0.47;;;;;;;;;;5009134;28;20050;-59
2022/03/26 04:25:50;;;;;;;1.13;0.47;;;;;;;;;;4998878;28;20041;-61
2022/03/26 04:28:16;;;;;;;1.63;0.50;;;;;;;;;;5008321;28;20045;-62
2022/03/26 04:30:42;;;;;;;2.30;0.55;;;;;;;;;;5008448;27;20133;-60
2022/03/26 04:33:08;;;;;;;2.15;0.50;;;;;;;;;;5093953;27;20507;-60
2022/03/26 04:35:34;;;;;;;1.27;0.43;;;;;;;;;;4991595;28;20049;-60
2022/03/26 04:38:00;;;;;;;1.73;0.55;;;;;;;;;;5007950;28;20030;-60
2022/03/26 04:40:26;;;;;;;4.55;0.70;;;;;;;;;;5008989;28;20052;-60
2022/03/26 04:42:53;;;;;;;2.38;0.57;;;;;;;;;;4993034;28;20053;-60
2022/03/26 04:45:19;;;;;;;1.88;0.60;;;;;;;;;;5009178;27;20041;-59
2022/03/26 04:47:45;;;;;;;4.22;0.63;;;;;;;;;;5005717;28;20037;-60
2022/03/26 04:50:11;;;;;;;3.25;0.80;;;;;;;;;;5009622;27;20073;-60
2022/03/26 04:52:38;;;;;;;2.45;0.70;;;;;;;;;;5007967;28;20310;-60
2022/03/26 04:55:05;;;;;;;1.80;0.50;;;;;;;;;;5009992;28;20509;-61
2022/03/26 04:57:31;;;;;;;1.27;0.40;;;;;;;;;;5010360;27;20042;-58
2022/03/26 04:59:57;;;;;;;3.65;0.70;;;;;;;;;;5008899;27;20127;-56
2022/03/26 05:02:23;;;;;;;4.13;0.70;;;;;;;;;;5008950;27;20065;-57
2022/03/26 05:04:49;;;;;;;3.13;0.95;;;;;;;;;;5006128;28;20165;-59
2022/03/26 05:09:59;;;;;;;1.55;0.45;;;;;;;;;;5007446;27;20059;-60
2022/03/26 05:12:26;;;;;;;2.38;0.50;;;;;;;;;;4990176;28;20046;-60
2022/03/26 05:14:52;;;;;;;1.42;0.50;;;;;;;;;;5009041;27;20531;-61
2022/03/26 05:17:18;;;;;;;1.55;0.55;;;;;;;;;;5009876;27;20042;-60
2022/03/26 05:19:43;;;;;;;4.57;0.52;;;;;;;;;;5009825;27;20138;-61
2022/03/26 05:22:09;;;;;;;1.65;0.52;;;;;;;;;;5006586;28;20506;-57
2022/03/26 05:24:35;;;;;;;2.22;0.68;;;;;;;;;;4990085;28;20118;-58
2022/03/26 05:27:01;;;;;;;3.42;0.75;;;;;;;;;;5007605;28;20575;-59
2022/03/26 05:29:29;;;;;;;2.85;0.55;;;;;;;;;;5007155;28;20046;-58
2022/03/26 05:31:55;;;;;;;6.43;0.75;;;;;;;;;;5005636;28;20687;-60
2022/03/26 05:34:21;;;;;;;1.73;0.52;;;;;;;;;;5008795;27;20034;-60
2022/03/26 05:36:47;;;;;;;4.28;0.57;;;;;;;;;;5006824;27;20054;-61
2022/03/26 05:39:13;;;;;;;1.35;0.45;;;;;;;;;;5007022;27;20118;-58
2022/03/26 05:41:39;;;;;;;1.38;0.50;;;;;;;;;;5006488;28;20208;-61
2022/03/26 05:44:05;;;;;;;5.07;0.80;;;;;;;;;;5006228;28;20037;-58
2022/03/26 05:46:31;;;;;;;1.38;0.45;;;;;;;;;;4990033;28;20049;-59
2022/03/26 05:48:57;;;;;;;1.17;0.40;;;;;;;;;;5006862;28;20049;-59
2022/03/26 05:51:23;;;;;;;1.45;0.60;;;;;;;;;;5006376;27;20098;-59
2022/03/26 05:53:50;;;;;;;1.30;0.47;;;;;;;;;;5006179;28;20034;-60
2022/03/26 05:56:16;;;;;;;5.28;0.50;;;;;;;;;;5006789;28;20042;-60
2022/03/26 05:58:42;;;;;;;1.63;0.50;;;;;;;;;;4987311;28;20057;-60
2022/03/26 06:01:08;;;;;;;1.45;0.50;;;;;;;;;;5008080;27;20042;-60
2022/03/26 06:03:34;;;;;;;1.23;0.40;;;;;;;;;;4988714;28;20043;-59
2022/03/26 06:06:00;;;;;;;1.63;0.50;;;;;;;;;;5005924;28;20037;-59
2022/03/26 06:08:27;;;;;;;1.98;0.57;;;;;;;;;;5007403;28;20042;-62
2022/03/26 06:10:52;;;;;;;2.78;0.70;;;;;;;;;;5009319;28;20739;-55
2022/03/26 06:13:18;;;;;;;1.00;0.38;;;;;;;;;;5008050;28;20054;-59
2022/03/26 06:15:44;;;;;;;3.15;0.68;;;;;;;;;;5007481;28;20757;-59
2022/03/26 06:18:12;;;;;;;0.98;0.40;;;;;;;;;;5009494;28;20034;-58
2022/03/26 06:20:37;;;;;;;1.40;0.45;;;;;;;;;;5007589;28;20029;-60
2022/03/26 06:23:03;;;;;;;2.28;0.65;;;;;;;;;;5009674;28;20074;-60
2022/03/26 06:25:29;;;;;;;1.92;0.60;;;;;;;;;;5010589;28;20034;-59
2022/03/26 06:27:55;;;;;;;2.45;0.60;;;;;;;;;;5012031;28;20061;-59
2022/03/26 06:30:21;;;;;;;2.25;0.50;;;;;;;;;;5008518;28;20045;-59
2022/03/26 06:32:47;;;;;;;1.98;0.52;;;;;;;;;;5006936;28;20046;-58
2022/03/26 06:35:13;;;;;;;2.25;0.50;;;;;;;;;;5007257;27;20038;-59
2022/03/26 06:37:39;;;;;;;1.25;0.50;;;;;;;;;;5005681;28;20042;-58
2022/03/26 06:40:05;;;;;;;1.48;0.43;;;;;;;;;;5007147;28;20026;-60
2022/03/26 06:42:31;;;;;;;1.48;0.50;;;;;;;;;;5023724;28;21850;-57
2022/03/26 06:44:59;;;;;;;5.85;0.50;;;;;;;;;;5022470;28;20048;-56
2022/03/26 06:47:26;;;;;;;2.10;0.60;;;;;;;;;;5005067;28;20053;-59
2022/03/26 06:49:53;;;;;;;4.30;0.50;;;;;;;;;;5010320;28;20046;-58
2022/03/26 06:52:19;;;;;;;0.88;0.40;;;;;;;;;;5006604;28;20689;-59
2022/03/26 06:54:45;;;;;;;3.60;0.52;;;;;;;;;;5006399;28;20040;-60
2022/03/26 06:57:11;;;;;;;1.42;0.50;;;;;;;;;;5008226;28;20048;-59
2022/03/26 06:59:37;;;;;;;0.95;0.40;;;;;;;;;;5005202;28;20046;-60
2022/03/26 07:02:02;;;;;;;3.40;0.50;;;;;;;;;;5002977;28;20063;-60
2022/03/26 07:04:28;;;;;;;3.75;0.38;;;;;;;;;;5004837;28;20038;-60
2022/03/26 07:06:54;;;;;;;3.45;0.60;;;;;;;;;;5002320;28;20054;-60
2022/03/26 07:09:20;;;;;;;1.17;0.40;;;;;;;;;;5008584;28;20495;-59
2022/03/26 07:11:46;;;;;;;1.15;0.45;;;;;;;;;;5009200;28;20038;-60
2022/03/26 07:14:17;;;;;;;1.15;0.40;;;;;;;;;;5005800;28;20064;-58
2022/03/26 07:16:44;;;;;;;1.83;0.60;;;;;;;;;;5007185;28;20064;-60
2022/03/26 07:19:10;;;;;;;3.28;0.60;;;;;;;;;;5008645;28;20049;-59
2022/03/26 07:21:37;;;;;;;2.42;0.75;;;;;;;;;;5005237;28;20050;-59
2022/03/26 07:24:04;;;;;;;1.92;0.50;;;;;;;;;;5005593;28;20067;-59
2022/03/26 07:26:30;;;;;;;1.35;0.50;;;;;;;;;;5004664;28;20126;-59
2022/03/26 07:28:56;;;;;;;1.92;0.50;;;;;;;;;;5006005;28;20487;-59
2022/03/26 07:31:22;;;;;;;2.30;0.65;;;;;;;;;;5005503;28;20928;-59
2022/03/26 07:33:48;;;;;;;1.40;0.47;;;;;;;;;;5007575;28;20041;-59
2022/03/26 07:36:15;;;;;;;3.15;0.80;;;;;;;;;;5006791;28;20497;-59
2022/03/26 07:38:41;;;;;;;2.38;0.47;;;;;;;;;;5004424;28;20037;-59
2022/03/26 07:41:07;;;;;;;5.47;0.70;;;;;;;;;;5005047;28;20130;-60
2022/03/26 07:43:34;;;;;;;3.13;0.80;;;;;;;;;;5005771;28;20057;-60
2022/03/26 07:46:00;;;;;;;3.17;0.60;;;;;;;;;;5006268;28;20460;-59
2022/03/26 07:48:26;;;;;;;1.98;0.63;;;;;;;;;;5006075;28;20692;-59
2022/03/26 07:50:52;;;;;;;1.70;0.60;;;;;;;;;;5005856;28;20038;-60
2022/03/26 07:53:18;;;;;;;2.08;0.60;;;;;;;;;;4987767;28;20033;-60
2022/03/26 07:55:44;;;;;;;2.05;0.65;;;;;;;;;;5008977;27;20037;-60
2022/03/26 07:58:10;;;;;;;1.77;0.57;;;;;;;;;;5009677;28;20161;-60
2022/03/26 08:00:36;;;;;;;3.33;0.77;;;;;;;;;;5008213;27;20109;-59
2022/03/26 08:03:02;;;;;;;1.35;0.47;;;;;;;;;;5008949;28;20065;-58
2022/03/26 08:05:28;;;;;;;2.30;0.68;;;;;;;;;;5006716;28;20324;-57
2022/03/26 08:07:54;;;;;;;1.95;0.60;;;;;;;;;;5009484;28;20692;-57
2022/03/26 08:10:20;;;;;;;3.70;0.60;;;;;;;;;;5006060;28;20037;-58
2022/03/26 08:12:46;;;;;;;2.70;0.90;;;;;;;;;;5006908;28;20437;-58
2022/03/26 08:15:12;;;;;;;1.27;0.57;;;;;;;;;;5006229;28;20044;-58
2022/03/26 08:17:38;;;;;;;1.83;0.63;;;;;;;;;;5008582;27;20065;-59
2022/03/26 08:20:04;;;;;;;2.97;0.90;;;;;;;;;;5005076;28;20512;-59
2022/03/26 08:22:30;;;;;;;3.45;0.75;;;;;;;;;;5005961;28;20054;-59
2022/03/26 08:24:56;;;;;;;2.30;0.70;;;;;;;;;;5007259;28;20041;-57
2022/03/26 08:27:25;;;;;;;2.38;0.63;;;;;;;;;;5007562;28;20048;-59
2022/03/26 08:29:52;;;;;;;1.77;0.68;;;;;;;;;;5007841;28;20046;-60
2022/03/26 08:32:18;;;;;;;1.88;0.60;;;;;;;;;;5007162;28;20041;-58
2022/03/26 08:34:44;;;;;;;2.85;0.73;;;;;;;;;;5004905;28;20065;-59
2022/03/26 08:37:11;;;;;;;2.10;0.70;;;;;;;;;;4997589;28;20129;-58
2022/03/26 08:39:36;;;;;;;2.45;0.85;;;;;;;;;;5005598;28;20741;-59
2022/03/26 08:42:03;;;;;;;6.00;1.05;;;;;;;;;;5006093;27;20219;-59
2022/03/26 08:44:29;;;;;;;3.03;0.70;;;;;;;;;;5005803;28;20042;-58
2022/03/26 08:46:55;;;;;;;2.60;1.00;;;;;;;;;;5007546;28;20037;-58
2022/03/26 08:49:21;;;;;;;5.65;1.10;;;;;;;;;;5008676;27;20094;-58
2022/03/26 08:51:47;;;;;;;2.88;0.90;;;;;;;;;;5006675;27;20391;-57
2022/03/26 08:54:13;;;;;;;5.07;0.85;;;;;;;;;;5005860;28;21698;-57
2022/03/26 08:56:39;;;;;;;2.55;0.80;;;;;;;;;;5007985;28;20041;-58
2022/03/26 08:59:05;;;;;;;4.40;0.82;;;;;;;;;;4995511;28;20141;-57
2022/03/26 09:01:31;;;;;;;3.55;1.00;;;;;;;;;;5006499;27;20049;-59
2022/03/26 09:03:57;;;;;;;2.55;0.88;;;;;;;;;;5008809;28;20042;-59
2022/03/26 09:06:23;;;;;;;2.42;0.73;;;;;;;;;;4988489;28;20048;-60
2022/03/26 09:08:50;;;;;;;2.10;0.82;;;;;;;;;;5008557;28;20048;-61
2022/03/26 09:11:17;;;;;;;4.35;0.80;;;;;;;;;;5008852;28;20375;-57
2022/03/26 09:13:43;;;;;;;7.35;1.05;;;;;;;;;;5008739;28;20038;-60
2022/03/26 09:16:09;;;;;;;3.97;0.85;;;;;;;;;;5008659;28;20045;-60
2022/03/26 09:18:35;;;;;;;3.08;0.85;;;;;;;;;;5008092;28;20048;-58
2022/03/26 09:21:01;;;;;;;2.38;0.80;;;;;;;;;;5008054;27;20076;-58
2022/03/26 09:23:27;;;;;;;7.60;1.00;;;;;;;;;;5006715;28;20080;-58
2022/03/26 09:25:53;;;;;;;2.50;0.85;;;;;;;;;;5008489;28;20026;-57
2022/03/26 09:28:19;;;;;;;6.30;1.23;;;;;;;;;;5007636;28;20061;-59
2022/03/26 09:30:45;;;;;;;4.70;1.10;;;;;;;;;;4988748;28;20078;-60
2022/03/26 09:33:11;;;;;;;2.85;0.90;;;;;;;;;;5007256;28;20062;-60
2022/03/26 09:35:36;;;;;;;7.00;1.20;;;;;;;;;;5005680;28;20174;-60
2022/03/26 09:38:02;;;;;;;6.90;1.15;;;;;;;;;;5007216;28;20038;-60
2022/03/26 09:40:28;;;;;;;2.50;0.98;;;;;;;;;;5008390;27;20038;-60
2022/03/26 09:42:54;;;;;;;3.00;0.88;;;;;;;;;;5009291;28;20409;-60
2022/03/26 09:45:20;;;;;;;3.05;1.02;;;;;;;;;;5005885;28;20492;-60
2022/03/26 09:47:46;;;;;;;3.55;1.10;;;;;;;;;;5010908;28;20133;-60
2022/03/26 09:50:12;;;;;;;2.85;0.93;;;;;;;;;;5011317;27;20069;-61
2022/03/26 09:52:39;;;;;;;7.95;1.05;;;;;;;;;;5010412;28;22411;-60
2022/03/26 09:55:05;;;;;;;3.53;1.08;;;;;;;;;;5010751;27;20056;-60
2022/03/26 09:57:31;;;;;;;5.88;1.15;;;;;;;;;;5008604;28;20155;-59
2022/03/26 09:59:57;;;;;;;3.53;1.10;;;;;;;;;;5007458;28;20121;-59
2022/03/26 10:02:24;;;;;;;3.95;1.15;;;;;;;;;;4989656;28;20057;-59
2022/03/26 10:04:49;;;;;;;3.70;0.95;;;;;;;;;;5093509;27;20061;-59
2022/03/26 10:07:15;;;;;;;3.15;1.10;;;;;;;;;;5006815;28;20416;-59
2022/03/26 10:09:47;;;;;;;3.58;1.00;;;;;;;;;;5041845;28;20056;-60
2022/03/26 10:12:13;;;;;;;5.50;1.27;;;;;;;;;;5009777;27;20435;-60
2022/03/26 10:14:51;;;;;;;3.00;1.10;;;;;;;;;;5010744;28;20042;-60
2022/03/26 10:17:26;;;;;;;3.33;1.20;;;;;;;;;;5008242;27;20053;-60
2022/03/26 10:19:56;;;;;;;3.08;1.00;;;;;;;;;;5006864;28;20053;-59
2022/03/26 10:22:24;;;;;;;2.92;0.90;;;;;;;;;;4988417;28;20155;-60
2022/03/26 10:24:50;;;;;;;8.38;1.52;;;;;;;;;;5006963;28;20113;-59
2022/03/26 10:27:16;;;;;;;3.45;1.10;;;;;;;;;;5008675;28;20038;-60
2022/03/26 10:29:49;;;;;;;3.55;1.15;;;;;;;;;;5006694;27;20037;-60
2022/03/26 10:32:39;;;;;;;3.85;1.23;;;;;;;;;;5008609;28;20486;-59
2022/03/26 10:35:06;;;;;;;2.92;1.45;;;;;;;;;;5011426;28;20037;-58
2022/03/26 10:37:41;;;;;;;5.70;0.90;;;;;;;;;;5008316;27;20050;-58
2022/03/26 10:40:20;;;;;;;4.32;1.10;;;;;;;;;;5007033;28;20125;-59
2022/03/26 10:42:59;;;;;;;2.83;1.15;;;;;;;;;;5008678;28;20179;-58
2022/03/26 10:45:26;;;;;;;6.20;1.30;;;;;;;;;;5008414;28;20049;-57
2022/03/26 10:47:55;;;;;;;3.50;0.93;;;;;;;;;;5009450;27;20037;-57
2022/03/26 10:50:22;;;;;;;3.47;1.38;;;;;;;;;;4996609;28;20744;-58
2022/03/26 10:52:47;;;;;;;5.10;1.25;;;;;;;;;;5004797;28;20042;-58
2022/03/26 10:55:14;;;;;;;6.30;1.30;;;;;;;;;;5001995;28;20678;-59
2022/03/26 10:57:41;;;;;;;4.60;1.27;;;;;;;;;;5005032;28;20042;-59
2022/03/26 11:00:09;;;;;;;2.70;1.00;;;;;;;;;;5004745;28;20520;-59
2022/03/26 11:02:35;;;;;;;3.45;1.30;;;;;;;;;;5002031;28;20052;-59
2022/03/26 11:05:01;;;;;;;3.05;1.05;;;;;;;;;;5001398;28;20053;-59
2022/03/26 11:07:27;;;;;;;2.80;1.10;;;;;;;;;;5003105;28;20049;-59
2022/03/26 11:09:54;;;;;;;3.75;1.45;;;;;;;;;;4985052;28;20065;-59
2022/03/26 11:12:21;;;;;;;4.55;1.25;;;;;;;;;;5003552;28;20112;-58
2022/03/26 11:14:47;;;;;;;4.20;1.20;;;;;;;;;;5004870;28;20041;-59
2022/03/26 11:17:31;;;;;;;5.90;1.30;;;;;;;;;;5005418;28;20148;-58
2022/03/26 11:20:13;;;;;;;3.47;1.13;;;;;;;;;;5003015;28;20045;-59
2022/03/26 11:22:57;;;;;;;5.43;1.30;;;;;;;;;;5005308;28;20045;-60
2022/03/26 11:25:23;;;;;;;4.00;1.48;;;;;;;;;;5005056;28;20030;-60
2022/03/26 11:28:07;;;;;;;3.90;1.55;;;;;;;;;;5006039;28;20567;-60
2022/03/26 11:30:37;;;;;;;3.95;1.40;;;;;;;;;;5006689;27;20389;-59
2022/03/26 11:33:12;;;;;;;3.95;1.58;;;;;;;;;;5010866;28;20049;-58
2022/03/26 11:35:52;;;;;;;9.32;1.65;;;;;;;;;;5012225;28;20045;-59
2022/03/26 11:38:18;;;;;;;3.83;1.67;;;;;;;;;;5011997;28;20598;-59
2022/03/26 11:40:53;;;;;;;3.65;1.52;;;;;;;;;;5012069;28;20042;-60
2022/03/26 11:43:38;;;;;;;4.82;1.58;;;;;;;;;;5012605;28;20076;-60
2022/03/26 11:51:36;;;;;;;4.95;1.60;;;;;;;;;;5009056;28;20041;-59
2022/03/26 11:54:13;;;;;;;4.07;1.63;;;;;;;;;;5011333;28;20371;-60
2022/03/26 11:56:39;;;;;;;4.93;1.80;;;;;;;;;;5013288;27;20182;-58
2022/03/26 11:59:25;;;;;;;4.88;2.10;;;;;;;;;;5013708;28;20046;-60
2022/03/26 12:01:51;;;;;;;4.40;1.98;;;;;;;;;;5011701;28;20080;-60
2022/03/26 12:04:20;;;;;;;4.38;1.75;;;;;;;;;;5011847;27;20061;-58
2022/03/26 12:06:49;;;;;;;5.15;2.30;;;;;;;;;;5012085;28;20122;-59
2022/03/26 12:09:30;;;;;;;4.78;2.20;;;;;;;;;;5016553;27;20059;-59
2022/03/26 12:12:11;;;;;;;5.07;2.05;;;;;;;;;;5010286;28;20314;-59
2022/03/26 12:14:55;;;;;;;4.70;2.42;;;;;;;;;;5012304;28;20038;-59
2022/03/26 12:17:40;;;;;;;4.93;2.40;;;;;;;;;;5010233;27;20038;-58
2022/03/26 12:20:32;;;;;;;4.78;2.30;;;;;;;;;;5011162;28;20046;-58
2022/03/26 12:23:04;;;;;;;6.68;3.10;;;;;;;;;;5009319;28;20118;-58
2022/03/26 12:25:34;;;;;;;5.75;2.55;;;;;;;;;;5007024;28;20037;-58
2022/03/26 12:28:00;;;;;;;11.75;2.63;;;;;;;;;;5009844;28;20048;-56
2022/03/26 12:30:26;;;;;;;5.57;2.60;;;;;;;;;;5007381;28;20033;-60
2022/03/26 12:32:52;;;;;;;6.40;2.45;;;;;;;;;;5015670;28;20075;-58
2022/03/26 12:35:18;;;;;;;5.78;2.83;;;;;;;;;;5011918;28;21697;-58
2022/03/26 12:37:48;;;;;;;5.20;2.75;;;;;;;;;;5011485;28;20041;-59
2022/03/26 12:40:16;;;;;;;7.15;2.25;;;;;;;;;;4991532;28;20525;-59
2022/03/26 12:42:42;;;;;;;5.95;2.60;;;;;;;;;;5008084;28;20079;-60
2022/03/26 12:45:17;;;;;;;5.45;2.60;;;;;;;;;;5008184;28;20061;-60
2022/03/26 12:47:44;;;;;;;7.55;2.40;;;;;;;;;;5006591;28;20043;-57
2022/03/26 12:50:10;;;;;;;5.30;2.80;;;;;;;;;;5010254;28;20162;-58
2022/03/26 12:52:36;;;;;;;6.55;3.35;;;;;;;;;;5010618;28;20853;-60
2022/03/26 12:55:02;;;;;;;5.22;2.65;;;;;;;;;;5010173;28;20925;-60
2022/03/26 13:00:24;;;;;;;14.70;3.22;;;;;;;;;;5028257;28;20046;-59
2022/03/26 13:03:00;;;;;;;5.85;3.17;;;;;;;;;;5008424;28;20054;-59
2022/03/26 13:05:28;;;;;;;5.65;2.65;;;;;;;;;;5007996;28;20085;-60
2022/03/26 13:07:56;;;;;;;5.20;2.55;;;;;;;;;;5010858;28;20129;-60
2022/03/26 13:10:35;;;;;;;8.95;3.00;;;;;;;;;;5009096;28;20047;-59
2022/03/26 13:13:02;;;;;;;7.18;3.42;;;;;;;;;;5009866;28;20069;-59
2022/03/26 13:15:29;;;;;;;6.97;3.30;;;;;;;;;;5005829;28;20049;-57
2022/03/26 13:18:01;;;;;;;7.40;3.10;;;;;;;;;;5006235;28;20578;-58
2022/03/26 13:20:27;;;;;;;5.63;3.25;;;;;;;;;;5005629;28;20042;-60
2022/03/26 13:22:56;;;;;;;6.10;2.70;;;;;;;;;;4786315;28;6333241;-62
2022/03/26 13:25:23;;;;;;;5.78;2.85;;;;;;;;;;5006377;28;20034;-59
2022/03/26 13:27:49;;;;;;;6.10;2.50;;;;;;;;;;5009465;28;20034;-59
2022/03/26 13:30:15;;;;;;;9.10;3.05;;;;;;;;;;5009494;27;20049;-61
2022/03/26 13:32:42;;;;;;;7.85;3.28;;;;;;;;;;5005478;28;20126;-56
2022/03/26 13:35:08;;;;;;;5.43;2.33;;;;;;;;;;5009189;27;20072;-58
2022/03/26 13:37:44;;;;;;;6.75;3.63;;;;;;;;;;5009048;27;20038;-59
2022/03/26 13:40:10;;;;;;;7.22;3.17;;;;;;;;;;5010206;27;20029;-57
2022/03/26 13:42:39;;;;;;;7.22;3.33;;;;;;;;;;4989659;28;20138;-59
2022/03/26 13:45:05;;;;;;;7.35;2.85;;;;;;;;;;5004634;28;20034;-58
2022/03/26 13:47:32;;;;;;;7.22;3.00;;;;;;;;;;4993696;28;20046;-60
2022/03/26 13:50:05;;;;;;;6.88;3.20;;;;;;;;;;5003374;28;20037;-60
2022/03/26 13:52:32;;;;;;;7.75;3.05;;;;;;;;;;5087204;27;20053;-55
2022/03/26 13:54:58;;;;;;;5.78;2.83;;;;;;;;;;5006033;28;20498;-60
2022/03/26 13:57:35;;;;;;;9.27;3.42;;;;;;;;;;5078848;27;20617;-58
2022/03/26 14:00:07;;;;;;;7.65;2.88;;;;;;;;;;5007370;27;21205;-59
2022/03/26 14:02:37;;;;;;;8.90;3.35;;;;;;;;;;5004534;27;20048;-58
2022/03/26 14:05:03;;;;;;;7.15;3.67;;;;;;;;;;5005656;27;20037;-60
2022/03/26 14:07:29;;;;;;;5.15;2.80;;;;;;;;;;5006106;28;20042;-59
2022/03/26 14:09:55;;;;;;;7.07;3.13;;;;;;;;;;5007497;28;20029;-59
2022/03/26 14:12:21;;;;;;;5.95;2.13;;;;;;;;;;5005106;28;20065;-59
2022/03/26 14:14:48;;;;;;;7.35;3.15;;;;;;;;;;5005748;28;20509;-60
2022/03/26 14:17:14;;;;;;;5.85;3.10;;;;;;;;;;5005325;28;20383;-59
2022/03/26 14:19:40;;;;;;;6.70;3.28;;;;;;;;;;5007770;27;20055;-57
2022/03/26 14:22:06;;;;;;;8.65;2.92;;;;;;;;;;5008084;27;20057;-58
2022/03/26 14:24:32;;;;;;;11.13;3.00;;;;;;;;;;5021931;27;20038;-60
2022/03/26 14:26:58;;;;;;;7.63;3.38;;;;;;;;;;5007703;28;20148;-61
2022/03/26 14:29:24;;;;;;;6.13;2.97;;;;;;;;;;5005873;27;20453;-61
2022/03/26 14:31:51;;;;;;;5.88;3.15;;;;;;;;;;5008219;27;20708;-59
2022/03/26 14:34:17;;;;;;;7.90;2.83;;;;;;;;;;5008190;28;20561;-58
2022/03/26 14:36:43;;;;;;;8.15;3.60;;;;;;;;;;5002472;28;20117;-59
2022/03/26 14:39:09;;;;;;;5.38;2.60;;;;;;;;;;4971274;28;20128;-61
2022/03/26 14:41:35;;;;;;;7.80;3.10;;;;;;;;;;5004122;27;20581;-60
2022/03/26 14:44:01;;;;;;;7.80;2.97;;;;;;;;;;5006075;28;20041;-61
2022/03/26 14:46:27;;;;;;;5.95;2.85;;;;;;;;;;4991688;28;20034;-59
2022/03/26 14:48:53;;;;;;;5.28;2.50;;;;;;;;;;4999138;27;20505;-60
2022/03/26 14:51:19;;;;;;;5.72;2.67;;;;;;;;;;5003840;27;20076;-60
2022/03/26 14:53:45;;;;;;;8.07;2.80;;;;;;;;;;5006091;27;20046;-61
2022/03/26 14:56:11;;;;;;;5.95;2.60;;;;;;;;;;5007146;28;20099;-61